EDT,Max TemperatureF,Mean TemperatureF,Min TemperatureF,Max Dew PointF,MeanDew PointF,Min DewpointF,Max Humidity, Mean Humidity, Min Humidity, Max Sea Level PressureIn, Mean Sea Level PressureIn, Min Sea Level PressureIn, Max VisibilityMiles, Mean VisibilityMiles, Min VisibilityMiles, Max Wind SpeedMPH, Mean Wind SpeedMPH, Max Gust SpeedMPH,PrecipitationIn, CloudCover, Events, WindDirDegrees
2013-10-1,80,68,55,62,60,56,93,74,54,30.12,30.07,30.03,10,10,9,14,7,18,0.00,4,,197
2013-10-2,82,72,61,69,64,59,93,78,62,30.16,30.10,30.05,10,10,6,13,5,19,T,5,,189
2013-10-3,82,75,67,68,66,63,97,76,54,30.12,30.07,30.03,10,8,3,10,5,14,0.01,4,Rain,182
2013-10-4,84,74,64,66,64,62,93,74,55,30.12,30.08,30.05,10,10,10,14,7,17,0.00,1,,189
2013-10-5,84,77,69,70,67,65,100,79,58,30.08,30.03,29.94,10,6,0,20,7,29,1.80,6,Fog-Rain-Thunderstorm,241
2013-10-6,75,64,53,68,62,51,97,88,79,29.94,29.85,29.78,10,6,1,20,10,26,2.18,7,Rain-Thunderstorm,221
2013-10-7,64,55,46,52,46,43,93,69,44,30.16,29.99,29.89,10,10,10,17,7,21,0.00,3,Rain,271
2013-10-8,68,56,44,47,44,42,92,69,45,30.26,30.20,30.16,10,10,10,19,10,28,0.00,0,,54
2013-10-9,75,62,49,51,47,44,80,61,41,30.22,30.18,30.15,10,10,10,9,5,13,0.00,0,Rain,70
2013-10-10,74,60,45,51,46,43,93,64,35,30.19,30.14,30.08,10,10,10,8,1,10,0.00,0,Rain,33
2013-10-11,77,63,48,54,50,46,93,66,38,30.11,30.07,30.03,10,10,10,8,2,11,0.00,0,,341
2013-10-12,80,64,48,59,53,47,93,68,42,30.13,30.07,30.03,10,9,3,9,1,13,0.00,0,,184
2013-10-13,78,64,50,62,55,49,100,77,54,30.27,30.20,30.13,10,5,0,14,4,16,0.01,2,Fog-Rain,50
2013-10-14,74,63,52,58,54,49,96,75,53,30.31,30.24,30.16,10,9,2,13,7,16,0.00,1,,28
2013-10-15,74,68,61,61,60,58,93,79,64,30.15,30.07,29.98,10,9,6,16,7,20,T,4,,173
2013-10-16,66,62,57,63,60,56,100,94,87,29.99,29.96,29.94,10,8,2,13,6,17,0.19,8,Rain,212
2013-10-17,58,52,45,56,49,44,93,83,72,30.03,29.94,29.90,10,8,2,16,6,23,0.15,7,Rain,294
2013-10-18,65,53,40,48,43,40,100,72,44,30.09,30.02,29.98,10,9,5,12,6,15,0.00,1,,194
2013-10-19,53,46,39,50,44,38,96,85,74,30.05,29.94,29.87,10,10,5,20,8,25,0.19,6,Rain,224
2013-10-20,61,49,37,42,38,35,92,67,42,30.11,30.07,30.04,10,10,8,15,8,19,0.00,0,,184
2013-10-21,68,55,41,43,40,37,86,62,37,30.07,30.01,29.94,10,10,10,18,9,23,0.00,2,,199
2013-10-22,55,47,39,48,36,27,93,64,35,30.08,29.97,29.86,10,10,8,18,4,26,0.04,4,Rain,334
2013-10-23,48,43,37,44,37,31,93,79,65,30.09,29.90,29.75,10,10,8,24,10,34,0.02,8,Rain,263
2013-10-24,48,42,35,36,32,29,82,68,53,30.31,30.18,30.09,10,10,10,25,7,35,T,8,Rain,264
2013-10-25,49,39,29,30,26,24,85,62,39,30.48,30.40,30.32,10,10,10,10,4,13,0.00,1,,266
2013-10-26,55,43,30,34,28,24,78,58,38,30.32,30.17,30.00,10,10,10,23,11,32,0.00,2,,207
2013-10-27,62,48,34,40,36,32,96,68,39,30.12,30.09,30.05,10,10,5,13,4,19,0.00,0,,217
2013-10-28,63,53,43,52,46,37,100,79,57,30.29,30.20,30.10,10,9,1,9,2,13,0.00,6,,89
2013-10-29,61,50,39,55,46,37,100,89,78,30.35,30.29,30.21,10,3,0,9,2,11,0.05,5,Fog-Rain,125
2013-10-30,69,63,57,63,59,55,97,88,78,30.20,30.14,30.06,10,7,2,17,8,21,0.79,7,Rain,174
2013-10-31,70,64,58,63,58,53,87,75,63,30.05,29.74,29.47,10,9,1,40,19,53,0.80,7,Rain,187